createdAt,value
2022-09-07T00:01:00.571Z,9.48
2022-09-07T00:03:27.433Z,7.00
2022-09-07T00:05:54.176Z,6.38
2022-09-07T00:08:23.260Z,5.88
2022-09-07T00:10:58.272Z,9.32
2022-09-07T00:13:26.782Z,6.15
2022-09-07T00:15:53.369Z,5.40
2022-09-07T00:18:20.013Z,6.60
2022-09-07T00:20:46.563Z,10.80
2022-09-07T00:23:13.276Z,8.77
2022-09-07T00:25:40.288Z,8.23
2022-09-07T00:28:08.585Z,8.07
2022-09-07T00:30:41.928Z,6.07
2022-09-07T00:33:09.126Z,6.90
2022-09-07T00:35:42.034Z,6.47
2022-09-07T00:38:09.300Z,5.90
2022-09-07T00:40:35.906Z,8.82
2022-09-07T00:43:02.483Z,10.48
2022-09-07T00:45:29.429Z,6.95
2022-09-07T00:48:07.482Z,5.00
2022-09-07T00:50:42.975Z,9.50
2022-09-07T00:53:15.835Z,10.20
2022-09-07T00:55:45.569Z,9.57
2022-09-07T00:58:13.419Z,4.43
2022-09-07T01:00:41.830Z,8.13
2022-09-07T01:03:10.900Z,8.02
2022-09-07T01:05:51.736Z,6.65
2022-09-07T01:08:18.505Z,7.03
2022-09-07T01:10:46.733Z,4.65
2022-09-07T01:13:15.049Z,4.85
2022-09-07T01:16:05.550Z,6.13
2022-09-07T01:18:53.342Z,4.55
2022-09-07T01:21:27.068Z,8.50
2022-09-07T01:24:11.520Z,8.82
2022-09-07T01:27:18.482Z,7.85
2022-09-07T01:30:03.480Z,9.50
2022-09-07T01:32:36.142Z,7.65
2022-09-07T01:35:12.016Z,5.45
2022-09-07T01:37:49.140Z,5.85
2022-09-07T01:40:22.535Z,6.95
2022-09-07T01:43:02.340Z,5.78
2022-09-07T01:45:34.807Z,9.18
2022-09-07T01:48:05.904Z,10.15
2022-09-07T01:50:45.680Z,9.80
2022-09-07T01:53:23.355Z,7.47
2022-09-07T01:56:01.799Z,8.98
2022-09-07T01:58:46.020Z,10.07
2022-09-07T02:01:18.861Z,6.03
2022-09-07T02:03:55.151Z,6.35
2022-09-07T02:06:36.460Z,6.10
2022-09-07T02:09:09.837Z,7.72
2022-09-07T02:11:40.640Z,6.40
2022-09-07T02:14:14.324Z,8.60
2022-09-07T02:16:49.651Z,7.95
2022-09-07T02:19:19.150Z,6.65
2022-09-07T02:21:53.271Z,11.73
2022-09-07T02:24:26.145Z,6.57
2022-09-07T02:26:54.400Z,9.40
2022-09-07T02:29:21.159Z,5.25
2022-09-07T02:31:48.124Z,7.25
2022-09-07T02:34:14.668Z,5.30
2022-09-07T02:36:45.780Z,7.65
2022-09-07T02:39:12.796Z,8.43
2022-09-07T02:41:41.969Z,7.05
2022-09-07T02:44:21.308Z,9.68
2022-09-07T02:47:06.081Z,4.95
2022-09-07T02:49:46.211Z,9.43
2022-09-07T02:52:24.668Z,6.93
2022-09-07T02:55:09.177Z,7.68
2022-09-07T02:57:53.344Z,6.93
2022-09-07T03:00:26.007Z,7.93
2022-09-07T03:03:12.605Z,7.97
2022-09-07T03:05:39.003Z,6.75
2022-09-07T03:10:45.390Z,9.13
2022-09-07T03:13:27.010Z,10.88
2022-09-07T03:15:56.243Z,8.02
2022-09-07T03:18:24.643Z,9.30
2022-09-07T03:20:51.412Z,6.18
2022-09-07T03:23:18.062Z,8.30
2022-09-07T03:25:44.635Z,5.80
2022-09-07T03:28:11.479Z,6.60
2022-09-07T03:30:41.946Z,9.32
2022-09-07T03:33:08.452Z,7.38
2022-09-07T03:38:02.077Z,10.52
2022-09-07T03:40:28.832Z,8.55
2022-09-07T03:42:55.319Z,7.95
2022-09-07T03:47:49.123Z,7.25
2022-09-07T03:50:15.651Z,8.20
2022-09-07T03:52:42.229Z,9.50
2022-09-07T03:55:09.023Z,7.07
2022-09-07T03:57:36.084Z,10.80
2022-09-07T04:00:04.855Z,8.75
2022-09-07T04:02:39.076Z,8.57
2022-09-07T04:05:05.834Z,7.53
2022-09-07T04:07:32.309Z,10.05
2022-09-07T04:09:58.791Z,9.70
2022-09-07T04:14:52.530Z,7.40
2022-09-07T04:19:45.395Z,7.80
2022-09-07T04:24:38.219Z,8.57
2022-09-07T04:29:31.130Z,9.80
2022-09-07T04:34:24.084Z,10.07
2022-09-07T04:36:50.547Z,7.65
2022-09-07T04:41:43.736Z,10.13
2022-09-07T04:44:14.806Z,6.75
2022-09-07T04:46:43.181Z,10.18
2022-09-07T04:51:38.583Z,8.88
2022-09-07T04:54:05.427Z,9.05
2022-09-07T04:56:32.708Z,9.95
2022-09-07T04:59:01.262Z,10.35
2022-09-07T05:01:32.193Z,10.48
2022-09-07T05:04:01.137Z,7.60
2022-09-07T05:06:27.643Z,9.90
2022-09-07T05:08:55.015Z,9.88
2022-09-07T05:11:28.412Z,12.82
2022-09-07T05:14:00.876Z,13.57
2022-09-07T05:16:28.414Z,8.52
2022-09-07T05:19:01.223Z,9.05
2022-09-07T05:21:29.936Z,11.25
2022-09-07T05:23:57.737Z,6.72
2022-09-07T05:26:27.131Z,7.80
2022-09-07T05:31:40.739Z,7.28
2022-09-07T05:36:56.417Z,9.82
2022-09-07T05:39:23.175Z,10.45
2022-09-07T05:41:49.788Z,8.07
2022-09-07T05:47:02.776Z,8.95
2022-09-07T05:49:30.348Z,9.23
2022-09-07T05:51:56.827Z,11.23
2022-09-07T05:56:49.647Z,13.77
2022-09-07T06:01:42.498Z,11.43
2022-09-07T06:04:09.007Z,10.25
2022-09-07T06:09:04.739Z,9.93
2022-09-07T06:11:31.227Z,10.80
2022-09-07T06:13:57.697Z,9.20
2022-09-07T06:16:24.331Z,10.77
2022-09-07T06:18:50.995Z,12.00
2022-09-07T06:21:19.622Z,9.00
2022-09-07T06:23:47.727Z,10.50
2022-09-07T06:26:16.324Z,12.27
2022-09-07T06:28:51.378Z,11.40
2022-09-07T06:31:21.577Z,9.70
2022-09-07T06:33:48.852Z,13.07
2022-09-07T06:36:17.784Z,11.65
2022-09-07T06:38:45.260Z,10.98
2022-09-07T06:44:06.739Z,10.80
2022-09-07T06:49:19.852Z,11.03
2022-09-07T06:51:46.362Z,9.40
2022-09-07T06:56:59.309Z,10.83
2022-09-07T06:59:25.785Z,12.13
2022-09-07T07:01:52.257Z,8.60
2022-09-07T07:04:18.718Z,11.05
2022-09-07T07:06:45.178Z,11.23
2022-09-07T07:09:13.064Z,9.73
2022-09-07T07:11:39.632Z,8.05
2022-09-07T07:14:06.128Z,11.60
2022-09-07T07:16:32.850Z,10.13
2022-09-07T07:18:59.452Z,9.27
2022-09-07T07:21:27.175Z,7.90
2022-09-07T07:23:55.372Z,9.63
2022-09-07T07:26:26.689Z,8.43
2022-09-07T07:31:26.937Z,8.77
2022-09-07T07:33:53.858Z,8.63
2022-09-07T07:36:22.919Z,7.85
2022-09-07T07:44:17.408Z,8.77
2022-09-07T07:46:47.509Z,8.15
2022-09-07T07:49:13.983Z,6.20
2022-09-07T07:54:26.800Z,5.50
2022-09-07T07:56:53.206Z,5.53
2022-09-07T07:59:19.654Z,6.90
2022-09-07T08:01:46.181Z,6.43
2022-09-07T08:04:12.735Z,6.15
2022-09-07T08:06:42.527Z,7.07
2022-09-07T08:09:09.121Z,5.88
2022-09-07T08:11:35.542Z,6.45
2022-09-07T08:14:05.833Z,7.18
2022-09-07T08:16:32.995Z,7.70
2022-09-07T08:18:59.559Z,5.38
2022-09-07T08:21:25.979Z,7.25
2022-09-07T08:23:52.328Z,7.50
2022-09-07T08:26:18.714Z,4.47
2022-09-07T08:28:46.169Z,4.88
2022-09-07T08:31:15.754Z,7.28
2022-09-07T08:33:42.791Z,5.88
2022-09-07T08:36:19.794Z,5.00
2022-09-07T08:38:47.308Z,5.80
2022-09-07T08:41:41.436Z,3.65
2022-09-07T08:44:19.891Z,4.30
2022-09-07T08:47:00.456Z,5.03
2022-09-07T08:49:50.444Z,6.68
2022-09-07T08:52:25.100Z,4.57
2022-09-07T08:55:18.650Z,6.05
2022-09-07T08:57:52.184Z,8.00
2022-09-07T09:00:19.176Z,5.38
2022-09-07T09:02:46.397Z,4.93
2022-09-07T09:05:43.859Z,3.80
2022-09-07T09:08:36.726Z,6.10
2022-09-07T09:11:10.792Z,5.70
2022-09-07T09:14:05.113Z,3.28
2022-09-07T09:16:43.380Z,4.07
2022-09-07T09:19:37.472Z,4.97
2022-09-07T09:22:17.537Z,4.47
2022-09-07T09:24:49.764Z,7.40
2022-09-07T09:27:16.397Z,5.13
2022-09-07T09:29:43.090Z,4.15
2022-09-07T09:32:39.776Z,3.10
2022-09-07T09:35:25.312Z,4.97
2022-09-07T09:37:51.687Z,3.85
2022-09-07T09:40:23.219Z,6.35
2022-09-07T09:42:59.907Z,4.63
2022-09-07T09:46:12.294Z,3.63
2022-09-07T09:48:34.982Z,5.53
2022-09-07T09:53:55.935Z,4.68
2022-09-07T09:56:23.359Z,3.97
2022-09-07T09:59:05.759Z,4.38
2022-09-07T10:01:36.883Z,3.63
2022-09-07T10:04:25.343Z,3.38
2022-09-07T10:07:10.949Z,3.15
2022-09-07T10:09:40.364Z,4.50
2022-09-07T10:12:22.485Z,5.75
2022-09-07T10:14:48.901Z,4.97
2022-09-07T10:17:27.405Z,4.18
2022-09-07T10:19:59.135Z,3.83
2022-09-07T10:22:37.428Z,4.28
2022-09-07T10:25:25.120Z,4.97
2022-09-07T10:28:09.920Z,4.78
2022-09-07T10:30:45.225Z,3.63
2022-09-07T10:33:26.556Z,4.28
2022-09-07T10:36:37.165Z,4.40
2022-09-07T10:39:13.044Z,6.03
2022-09-07T10:42:08.640Z,4.95
2022-09-07T10:45:08.835Z,4.82
2022-09-07T10:48:00.123Z,4.00
2022-09-07T10:50:39.491Z,6.30
2022-09-07T10:53:42.275Z,4.45
2022-09-07T10:56:18.595Z,3.38
2022-09-07T10:59:02.193Z,4.22
2022-09-07T11:01:50.966Z,5.20
2022-09-07T11:04:36.240Z,3.85
2022-09-07T11:07:17.062Z,3.47
2022-09-07T11:09:48.347Z,5.15
2022-09-07T11:12:18.625Z,3.72
2022-09-07T11:15:10.767Z,8.00
2022-09-07T11:17:52.757Z,5.55
2022-09-07T11:20:34.010Z,5.00
2022-09-07T11:23:16.960Z,4.53
2022-09-07T11:26:01.919Z,5.72
2022-09-07T11:29:28.740Z,5.32
2022-09-07T11:31:49.319Z,3.70
2022-09-07T11:34:38.067Z,4.55
2022-09-07T11:37:19.532Z,4.90
2022-09-07T11:40:03.989Z,3.17
2022-09-07T11:42:55.708Z,3.72
2022-09-07T11:45:45.908Z,5.18
2022-09-07T11:48:30.285Z,2.78
2022-09-07T11:51:05.842Z,3.00
2022-09-07T11:53:42.425Z,2.42
2022-09-07T11:59:09.492Z,4.70
2022-09-07T12:01:44.910Z,5.53
2022-09-07T12:04:35.184Z,6.70
2022-09-07T12:07:10.977Z,5.07
2022-09-07T12:09:59.475Z,6.32
2022-09-07T12:12:38.059Z,3.05
2022-09-07T12:15:36.248Z,5.38
2022-09-07T12:18:05.435Z,5.22
2022-09-07T12:20:41.085Z,5.50
2022-09-07T12:23:16.731Z,4.00
2022-09-07T12:25:44.957Z,3.67
2022-09-07T12:28:21.720Z,4.82
2022-09-07T12:30:55.640Z,3.70
2022-09-07T12:33:26.552Z,4.95
2022-09-07T12:35:54.956Z,4.57
2022-09-07T12:38:30.735Z,5.00
2022-09-07T12:41:02.847Z,3.88
2022-09-07T12:43:36.103Z,3.47
2022-09-07T12:46:03.338Z,2.65
2022-09-07T12:49:00.106Z,4.13
2022-09-07T12:54:43.847Z,6.18
2022-09-07T12:57:34.762Z,3.17
2022-09-07T13:00:42.300Z,4.60
2022-09-07T13:06:16.081Z,4.18
2022-09-07T13:08:47.739Z,4.57
2022-09-07T13:11:30.011Z,3.67
2022-09-07T13:14:05.159Z,4.13
2022-09-07T13:19:59.196Z,4.38
2022-09-07T13:22:31.291Z,3.70
2022-09-07T13:24:59.793Z,3.08
2022-09-07T13:27:52.418Z,4.32
2022-09-07T13:30:31.013Z,3.78
2022-09-07T13:33:25.124Z,2.38
2022-09-07T13:35:54.178Z,2.83
2022-09-07T13:38:21.585Z,3.10
2022-09-07T13:40:52.034Z,1.52
2022-09-07T13:43:21.248Z,3.45
2022-09-07T13:45:53.887Z,4.18
2022-09-07T13:48:41.984Z,5.20
2022-09-07T13:51:20.487Z,5.70
2022-09-07T13:53:56.085Z,2.58
2022-09-07T13:56:28.349Z,4.28
2022-09-07T13:58:55.098Z,3.35
2022-09-07T14:01:26.500Z,3.88
2022-09-07T14:04:06.528Z,1.42
2022-09-07T14:06:34.165Z,3.33
2022-09-07T14:09:14.729Z,3.45
2022-09-07T14:11:46.054Z,3.67
2022-09-07T14:14:27.212Z,6.53
2022-09-07T14:17:07.554Z,4.15
2022-09-07T14:19:41.783Z,3.25
2022-09-07T14:22:11.192Z,3.40
2022-09-07T14:24:40.815Z,5.68
2022-09-07T14:27:20.945Z,3.33
2022-09-07T14:29:48.132Z,2.88
2022-09-07T14:32:22.331Z,3.08
2022-09-07T14:34:50.559Z,5.03
2022-09-07T14:37:20.943Z,7.40
2022-09-07T14:39:49.985Z,5.93
2022-09-07T14:42:22.150Z,2.47
2022-09-07T14:44:50.196Z,2.30
2022-09-07T14:47:23.491Z,3.58
2022-09-07T14:49:52.609Z,3.20
2022-09-07T14:53:33.154Z,4.05
2022-09-07T14:55:39.823Z,3.25
2022-09-07T14:58:15.568Z,5.03
2022-09-07T15:00:47.121Z,5.55
2022-09-07T15:03:50.954Z,4.68
2022-09-07T15:09:36.955Z,3.38
2022-09-07T15:12:18.458Z,4.20
2022-09-07T15:14:45.544Z,3.13
2022-09-07T15:20:29.643Z,5.47
2022-09-07T15:22:56.137Z,3.50
2022-09-07T15:25:22.911Z,3.78
2022-09-07T15:27:50.340Z,3.03
2022-09-07T15:30:17.615Z,3.22
2022-09-07T15:32:44.184Z,2.72
2022-09-07T15:35:10.914Z,4.50
2022-09-07T15:40:26.170Z,2.80
2022-09-07T15:43:00.640Z,2.50
2022-09-07T15:45:27.491Z,4.70
2022-09-07T15:47:54.152Z,3.22
2022-09-07T15:50:23.138Z,5.05
2022-09-07T15:52:49.744Z,4.75
2022-09-07T15:55:17.524Z,5.53
2022-09-07T15:58:05.245Z,3.03
2022-09-07T16:00:30.861Z,3.88
2022-09-07T16:03:06.097Z,6.93
2022-09-07T16:05:33.845Z,5.97
2022-09-07T16:10:55.604Z,5.07
2022-09-07T16:13:24.010Z,8.17
2022-09-07T16:15:52.709Z,5.38
2022-09-07T16:18:19.293Z,4.95
2022-09-07T16:20:47.362Z,4.82
2022-09-07T16:23:16.442Z,4.97
2022-09-07T16:25:56.283Z,6.57
2022-09-07T16:28:22.970Z,5.90
2022-09-07T16:30:50.188Z,4.70
2022-09-07T16:33:16.634Z,10.90
2022-09-07T16:35:43.089Z,4.85
2022-09-07T16:40:56.181Z,4.30
2022-09-07T16:43:22.878Z,6.05
2022-09-07T16:46:05.153Z,3.97
2022-09-07T16:48:33.462Z,5.88
2022-09-07T16:51:02.657Z,5.78
2022-09-07T16:53:31.065Z,3.78
2022-09-07T16:56:20.039Z,5.40
2022-09-07T16:58:49.246Z,7.90
2022-09-07T17:01:19.838Z,5.20
2022-09-07T17:03:49.224Z,6.32
2022-09-07T17:06:16.998Z,4.68
2022-09-07T17:08:43.959Z,7.57
2022-09-07T17:11:13.324Z,6.18
2022-09-07T17:13:41.308Z,7.22
2022-09-07T17:16:13.081Z,4.03
2022-09-07T17:21:35.905Z,8.05
2022-09-07T17:24:04.764Z,5.05
2022-09-07T17:26:32.181Z,6.35
2022-09-07T17:29:00.976Z,11.75
2022-09-07T17:34:16.900Z,7.57
2022-09-07T17:36:43.327Z,6.45
2022-09-07T17:39:18.627Z,6.75
2022-09-07T17:41:52.461Z,8.03
2022-09-07T17:44:19.316Z,5.15
2022-09-07T17:46:45.719Z,6.70
2022-09-07T17:49:14.375Z,6.18
2022-09-07T17:51:40.882Z,9.07
2022-09-07T17:54:11.649Z,7.05
2022-09-07T17:56:39.050Z,5.95
2022-09-07T18:01:53.870Z,4.75
2022-09-07T18:04:20.964Z,7.38
2022-09-07T18:06:47.654Z,7.88
2022-09-07T18:09:14.402Z,7.35
2022-09-07T18:11:47.095Z,6.75
2022-09-07T18:14:15.225Z,6.72
2022-09-07T18:16:44.100Z,6.47
2022-09-07T18:19:12.241Z,5.43
2022-09-07T18:21:40.810Z,6.63
2022-09-07T18:24:13.812Z,7.15
2022-09-07T18:26:41.020Z,7.95
2022-09-07T18:29:25.874Z,6.40
2022-09-07T18:31:55.356Z,6.20
2022-09-07T18:34:22.291Z,6.90
2022-09-07T18:36:49.048Z,8.68
2022-09-07T18:39:15.639Z,8.90
2022-09-07T18:41:42.356Z,7.30
2022-09-07T18:46:55.913Z,6.35
2022-09-07T18:49:22.498Z,5.65
2022-09-07T18:54:35.681Z,10.03
2022-09-07T18:57:02.211Z,6.68
2022-09-07T18:59:29.836Z,6.43
2022-09-07T19:02:01.321Z,7.50
2022-09-07T19:09:44.321Z,5.70
2022-09-07T19:12:10.866Z,8.90
2022-09-07T19:14:38.100Z,6.20
2022-09-07T19:17:04.852Z,8.48
2022-09-07T19:19:32.817Z,6.85
2022-09-07T19:22:01.552Z,10.45
2022-09-07T19:24:28.624Z,9.13
2022-09-07T19:27:00.075Z,7.82
2022-09-07T19:29:27.200Z,8.18
2022-09-07T19:32:11.635Z,7.93
2022-09-07T19:34:43.555Z,7.15
2022-09-07T19:37:12.623Z,8.57
2022-09-07T19:39:39.842Z,7.95
2022-09-07T19:42:07.237Z,7.47
2022-09-07T19:44:33.991Z,11.95
2022-09-07T19:47:00.842Z,6.47
2022-09-07T19:49:28.003Z,7.50
2022-09-07T19:51:54.833Z,7.55
2022-09-07T19:54:21.567Z,6.60
2022-09-07T19:56:48.345Z,7.95
2022-09-07T19:59:15.135Z,8.70
2022-09-07T20:01:45.984Z,8.77
2022-09-07T20:04:20.303Z,8.32
2022-09-07T20:06:49.829Z,5.57
2022-09-07T20:09:18.212Z,5.85
2022-09-07T20:11:46.935Z,8.35
2022-09-07T20:14:15.039Z,7.95
2022-09-07T20:16:41.976Z,10.13
2022-09-07T20:19:11.599Z,5.45
2022-09-07T20:21:38.340Z,6.90
2022-09-07T20:24:05.936Z,6.00
2022-09-07T20:26:32.692Z,9.60
2022-09-07T20:29:23.454Z,7.25
2022-09-07T20:31:46.235Z,5.90
2022-09-07T20:34:12.938Z,9.70
2022-09-07T20:36:40.071Z,7.65
2022-09-07T20:39:06.575Z,6.60
2022-09-07T20:41:34.226Z,10.73
2022-09-07T20:44:02.341Z,6.65
2022-09-07T20:46:30.283Z,6.82
2022-09-07T20:48:57.196Z,5.97
2022-09-07T20:51:23.742Z,9.40
2022-09-07T20:53:50.726Z,7.45
2022-09-07T20:56:18.450Z,7.13
2022-09-07T20:58:46.416Z,11.35
2022-09-07T21:01:15.275Z,7.63
2022-09-07T21:03:49.214Z,7.93
2022-09-07T21:06:17.356Z,7.75
2022-09-07T21:08:45.280Z,7.35
2022-09-07T21:11:19.874Z,7.93
2022-09-07T21:13:47.092Z,10.10
2022-09-07T21:16:16.895Z,8.15
2022-09-07T21:18:44.099Z,7.57
2022-09-07T21:21:20.163Z,10.85
2022-09-07T21:23:47.626Z,9.52
2022-09-07T21:26:14.004Z,6.95
2022-09-07T21:31:08.560Z,10.68
2022-09-07T21:33:36.413Z,7.72
2022-09-07T21:36:07.672Z,6.05
2022-09-07T21:38:36.075Z,7.30
2022-09-07T21:41:13.883Z,8.35
2022-09-07T21:43:40.921Z,7.47
2022-09-07T21:46:12.152Z,10.68
2022-09-07T21:48:39.304Z,8.25
2022-09-07T21:51:06.271Z,7.95
2022-09-07T21:53:33.369Z,10.15
2022-09-07T21:56:02.867Z,6.75
2022-09-07T21:58:29.692Z,8.05
2022-09-07T22:00:56.971Z,10.48
2022-09-07T22:03:25.242Z,8.32
2022-09-07T22:05:52.267Z,7.82
2022-09-07T22:08:19.225Z,11.38
2022-09-07T22:10:46.387Z,11.35
2022-09-07T22:13:12.992Z,8.63
2022-09-07T22:15:40.807Z,8.80
2022-09-07T22:18:10.748Z,6.85
2022-09-07T22:20:37.159Z,7.03
2022-09-07T22:25:33.117Z,7.70
2022-09-07T22:27:59.608Z,8.77
2022-09-07T22:32:52.314Z,6.38
2022-09-07T22:37:46.251Z,5.75
2022-09-07T22:40:14.680Z,8.35
2022-09-07T22:42:41.811Z,5.78
2022-09-07T22:45:08.958Z,7.07
2022-09-07T22:47:35.312Z,8.65
2022-09-07T22:50:01.685Z,8.63
2022-09-07T22:54:54.352Z,7.47
2022-09-07T22:59:47.009Z,6.72
2022-09-07T23:02:13.359Z,7.55
2022-09-07T23:07:07.590Z,8.15
2022-09-07T23:09:33.960Z,6.30
2022-09-07T23:12:00.430Z,6.20
2022-09-07T23:16:53.235Z,9.52
2022-09-07T23:19:20.316Z,7.03
2022-09-07T23:21:46.937Z,7.28
2022-09-07T23:24:15.984Z,3.90
2022-09-07T23:26:43.160Z,4.30
2022-09-07T23:29:11.950Z,7.03
2022-09-07T23:31:38.725Z,4.65
2022-09-07T23:34:05.540Z,6.35
2022-09-07T23:36:32.708Z,8.02
2022-09-07T23:38:59.912Z,7.07
2022-09-07T23:41:27.158Z,8.73
2022-09-07T23:43:54.793Z,6.80
2022-09-07T23:46:21.882Z,7.60
2022-09-07T23:48:49.076Z,10.15
2022-09-07T23:51:19.936Z,9.55
2022-09-07T23:53:49.552Z,7.78
2022-09-07T23:58:42.676Z,10.43
